Time;durP1;ratioP1;P1;durP2;ratioP2;P2;SDS_P1;SDS_P2;PMS_P1;PMS_P2;Temp;Humidity;BMP_temperature;BMP_pressure;BME280_temperature;BME280_humidity;BME280_pressure;Samples;Min_cycle;Max_cycle;Signal;HPM_P1;HPM_P2
2023/05/07 00:01:33;;;;;;;10.65;2.70;;;;;;;-145.69;100.00;52313.69;5053618;28;20203;-77
2023/05/07 00:04:01;;;;;;;5.20;2.75;;;;;;;-145.69;100.00;52333.47;5053263;28;20206;-77
2023/05/07 00:06:28;;;;;;;4.30;2.85;;;;;;;-145.69;100.00;52343.38;5057982;28;20195;-77
2023/05/07 00:08:55;;;;;;;4.28;2.67;;;;;;;-145.69;100.00;52345.38;5053120;28;20281;-77
2023/05/07 00:11:21;;;;;;;4.18;2.60;;;;;;;-145.69;100.00;52341.41;5053188;28;20609;-77
2023/05/07 00:13:48;;;;;;;6.15;2.70;;;;;;;-145.69;100.00;52321.59;5052981;28;20600;-77
2023/05/07 00:16:15;;;;;;;6.33;3.30;;;;;;;-145.69;100.00;52325.56;5053618;28;20206;-77
2023/05/07 00:18:41;;;;;;;7.13;2.95;;;;;;;-145.69;100.00;52337.44;5053333;28;20208;-77
2023/05/07 00:21:09;;;;;;;5.00;2.33;;;;;;;-145.69;100.00;52323.59;5053166;28;20223;-76
2023/05/07 00:23:36;;;;;;;5.13;2.90;;;;;;;-145.69;100.00;52315.66;5053001;28;20206;-77
2023/05/07 00:26:02;;;;;;;6.20;2.75;;;;;;;-145.69;100.00;52297.84;5052869;28;20636;-76
2023/05/07 00:28:29;;;;;;;4.63;2.70;;;;;;;-145.69;100.00;52333.47;5052263;28;20206;-76
2023/05/07 00:30:55;;;;;;;5.13;2.78;;;;;;;-145.69;100.00;52283.97;5053113;28;20200;-76
2023/05/07 00:33:22;;;;;;;5.32;2.65;;;;;;;-145.69;100.00;52297.84;5053032;28;20200;-76
2023/05/07 00:35:48;;;;;;;9.15;2.92;;;;;;;-145.69;100.00;52272.09;5052810;28;20670;-76
2023/05/07 00:38:16;;;;;;;4.50;2.30;;;;;;;-145.69;100.00;52321.59;5052906;28;20199;-76
2023/05/07 00:40:43;;;;;;;7.40;2.28;;;;;;;-145.69;100.00;52315.66;5052263;28;20203;-76
2023/05/07 00:43:09;;;;;;;3.88;2.20;;;;;;;-145.69;100.00;52325.56;5052976;28;20191;-77
2023/05/07 00:45:36;;;;;;;4.95;2.15;;;;;;;-145.69;100.00;52293.88;5052820;28;20254;-77
2023/05/07 00:48:03;;;;;;;3.38;2.47;;;;;;;-145.69;100.00;52353.28;5052798;28;20200;-77
2023/05/07 00:50:30;;;;;;;5.70;2.70;;;;;;;-145.69;100.00;52319.63;5052531;28;20223;-76
2023/05/07 00:52:57;;;;;;;5.03;2.40;;;;;;;-145.69;100.00;52309.72;5065181;28;20195;-76
2023/05/07 00:55:25;;;;;;;3.40;2.45;;;;;;;-145.69;100.00;52305.75;5072652;28;20273;-77
2023/05/07 00:57:52;;;;;;;6.10;2.47;;;;;;;-145.69;100.00;52365.16;5073010;28;20205;-76
2023/05/07 01:00:19;;;;;;;4.80;2.53;;;;;;;-145.69;100.00;52335.47;5072805;28;20206;-77
2023/05/07 01:02:46;;;;;;;4.55;2.40;;;;;;;-145.69;100.00;52353.28;5070238;28;20205;-77
2023/05/07 01:05:14;;;;;;;4.40;2.20;;;;;;;-145.69;100.00;52331.50;5072663;28;20756;-77
2023/05/07 01:07:42;;;;;;;3.42;2.13;;;;;;;-145.69;100.00;52335.47;5072647;28;20205;-77
2023/05/07 01:10:10;;;;;;;5.80;2.40;;;;;;;-145.69;100.00;52351.31;5068831;28;20234;-77
2023/05/07 01:12:40;;;;;;;3.77;2.63;;;;;;;-145.69;100.00;52339.44;5053061;28;20191;-76
2023/05/07 01:15:09;;;;;;;5.38;2.38;;;;;;;-145.69;100.00;52353.28;5058085;28;20202;-76
2023/05/07 01:17:36;;;;;;;2.87;2.30;;;;;;;-145.69;100.00;52349.31;5053717;28;20206;-77
2023/05/07 01:20:05;;;;;;;3.97;2.63;;;;;;;-145.69;100.00;52333.47;5051440;28;20432;-76
2023/05/07 01:22:33;;;;;;;3.67;2.30;;;;;;;-145.69;100.00;52363.19;5065341;28;20234;-77
2023/05/07 01:25:01;;;;;;;3.45;2.17;;;;;;;-145.69;100.00;52363.19;5063578;28;20570;-76
2023/05/07 01:27:27;;;;;;;5.30;2.15;;;;;;;-145.69;100.00;52327.53;5052448;28;20199;-77
2023/05/07 01:29:55;;;;;;;4.83;2.40;;;;;;;-145.69;100.00;52317.66;5052361;28;20581;-77
2023/05/07 01:32:28;;;;;;;6.70;2.60;;;;;;;-145.69;100.00;52323.59;5052307;28;20273;-77
2023/05/07 01:34:56;;;;;;;3.00;2.22;;;;;;;-145.69;100.00;52369.13;5058738;28;20187;-77
2023/05/07 01:37:23;;;;;;;5.13;2.70;;;;;;;-145.69;100.00;52327.53;5072708;28;20206;-77
2023/05/07 01:39:51;;;;;;;4.93;2.80;;;;;;;-145.69;100.00;52361.22;5072626;28;20198;-76
2023/05/07 01:42:17;;;;;;;4.30;2.53;;;;;;;-145.69;100.00;52377.06;5059144;28;20195;-76
2023/05/07 01:44:44;;;;;;;3.83;2.38;;;;;;;-145.69;100.00;52367.16;5052254;28;20250;-76
2023/05/07 01:47:11;;;;;;;6.03;2.20;;;;;;;-145.69;100.00;52333.47;5057780;28;20226;-76
2023/05/07 01:49:37;;;;;;;4.40;2.63;;;;;;;-145.69;100.00;52349.31;5072043;28;20233;-76
2023/05/07 01:52:04;;;;;;;3.53;2.33;;;;;;;-145.69;100.00;52355.28;5059651;28;20202;-76
2023/05/07 01:54:31;;;;;;;7.00;2.80;;;;;;;-145.69;100.00;52357.25;5055299;28;20207;-76
2023/05/07 01:57:53;;;;;;;4.03;2.50;;;;;;;-145.69;100.00;52325.56;5048429;28;20204;-75
2023/05/07 02:00:22;;;;;;;8.02;2.47;;;;;;;-145.69;100.00;52367.16;5056855;28;20654;-76
2023/05/07 02:02:48;;;;;;;6.43;2.53;;;;;;;-145.69;100.00;52339.44;5054953;28;20443;-76
2023/05/07 02:05:15;;;;;;;4.70;2.13;;;;;;;-145.69;100.00;52367.16;5055662;28;20199;-76
2023/05/07 02:07:41;;;;;;;4.17;2.90;;;;;;;-145.69;100.00;52369.13;5055669;28;20200;-76
2023/05/07 02:10:08;;;;;;;5.27;3.07;;;;;;;-145.69;100.00;52333.47;5055791;28;20223;-75
2023/05/07 02:12:35;;;;;;;6.43;2.77;;;;;;;-145.69;100.00;52339.44;5056253;28;20207;-76
2023/05/07 02:15:01;;;;;;;3.83;3.20;;;;;;;-145.69;100.00;52363.19;5075582;28;20202;-76
2023/05/07 02:17:31;;;;;;;5.40;3.07;;;;;;;-145.69;100.00;52349.31;5075788;28;20634;-75
2023/05/07 02:19:58;;;;;;;7.90;3.30;;;;;;;-145.69;100.00;52337.44;5073782;28;20291;-76
2023/05/07 02:22:25;;;;;;;6.10;2.97;;;;;;;-145.69;100.00;52333.47;5061982;28;20200;-75
2023/05/07 02:24:51;;;;;;;5.13;3.00;;;;;;;-145.69;100.00;52349.31;5055608;28;20203;-76
2023/05/07 02:27:17;;;;;;;7.97;3.20;;;;;;;-145.69;100.00;52353.28;5068032;28;20187;-76
2023/05/07 02:29:44;;;;;;;3.93;2.60;;;;;;;-145.69;100.00;52355.28;5056858;28;20226;-76
2023/05/07 02:32:10;;;;;;;5.77;2.70;;;;;;;-145.69;100.00;52355.28;5055203;28;20666;-76
2023/05/07 02:34:38;;;;;;;3.10;2.50;;;;;;;-145.69;100.00;52371.13;5054881;28;20195;-76
2023/05/07 02:37:04;;;;;;;8.07;3.03;;;;;;;-145.69;100.00;52347.34;5055155;28;20277;-76
2023/05/07 02:39:31;;;;;;;5.60;2.77;;;;;;;-145.69;100.00;52379.03;5056009;28;20565;-77
2023/05/07 02:41:57;;;;;;;4.73;2.87;;;;;;;-145.69;100.00;52369.13;5074933;28;20194;-76
2023/05/07 02:44:24;;;;;;;5.30;3.10;;;;;;;-145.69;100.00;52390.91;5060009;28;20202;-76
2023/05/07 02:46:50;;;;;;;7.50;3.95;;;;;;;-145.69;100.00;52361.22;5053512;28;20849;-76
2023/05/07 02:49:16;;;;;;;4.43;3.10;;;;;;;-145.69;100.00;52349.31;5054704;28;20195;-75
2023/05/07 02:51:44;;;;;;;5.57;3.20;;;;;;;-145.69;100.00;52369.13;5072512;28;20198;-76
2023/05/07 02:54:11;;;;;;;6.73;3.27;;;;;;;-145.69;100.00;52353.28;5074731;28;20221;-76
2023/05/07 02:56:37;;;;;;;4.33;3.47;;;;;;;-145.69;100.00;52388.94;5074402;28;20210;-76
2023/05/07 02:59:03;;;;;;;7.33;3.67;;;;;;;-145.69;100.00;52361.22;5074770;28;20199;-76
2023/05/07 03:01:30;;;;;;;7.37;3.60;;;;;;;-145.69;100.00;52353.28;5057965;28;20204;-77
2023/05/07 03:03:56;;;;;;;7.00;3.93;;;;;;;-145.69;100.00;52379.03;5048361;28;20208;-77
2023/05/07 03:06:23;;;;;;;7.50;3.60;;;;;;;-145.69;100.00;52363.19;5034792;28;20290;-76
2023/05/07 03:08:51;;;;;;;10.17;3.80;;;;;;;-145.69;100.00;52369.13;5034346;28;20204;-76
2023/05/07 03:11:17;;;;;;;6.73;3.60;;;;;;;-145.69;100.00;52416.66;5063289;28;20222;-76
2023/05/07 03:13:44;;;;;;;6.13;3.80;;;;;;;-145.69;100.00;52381.00;5065205;28;20191;-76
2023/05/07 03:16:10;;;;;;;5.63;3.63;;;;;;;-145.69;100.00;52379.03;5054137;28;20243;-76
2023/05/07 03:18:37;;;;;;;5.53;3.50;;;;;;;-145.69;100.00;52375.06;5054209;28;20693;-75
2023/05/07 03:21:03;;;;;;;5.63;3.83;;;;;;;-145.69;100.00;52388.94;5065778;28;20190;-76
2023/05/07 03:23:30;;;;;;;7.40;4.37;;;;;;;-145.69;100.00;52404.78;5074198;28;20281;-77
2023/05/07 03:25:57;;;;;;;9.63;4.47;;;;;;;-145.69;100.00;52369.13;5074339;28;20199;-75
2023/05/07 03:28:24;;;;;;;7.90;4.43;;;;;;;-145.69;100.00;52448.34;5074183;28;20209;-76
2023/05/07 03:30:50;;;;;;;6.13;4.43;;;;;;;-145.69;100.00;52394.88;5063869;28;20313;-76
2023/05/07 03:33:17;;;;;;;6.03;4.30;;;;;;;-145.69;100.00;52400.81;5053971;28;20200;-76
2023/05/07 03:35:43;;;;;;;6.13;4.30;;;;;;;-145.69;100.00;52365.16;5053829;28;20203;-77
2023/05/07 03:38:09;;;;;;;5.80;4.60;;;;;;;-145.69;100.00;52375.06;5053775;28;20199;-76
2023/05/07 03:40:36;;;;;;;8.53;4.90;;;;;;;-145.69;100.00;52355.28;5061381;28;20191;-77
2023/05/07 03:43:04;;;;;;;8.37;4.70;;;;;;;-145.69;100.00;52363.19;5070286;28;20257;-77
2023/05/07 03:45:30;;;;;;;8.60;4.43;;;;;;;-145.69;100.00;52388.94;5053352;28;20293;-77
2023/05/07 03:47:57;;;;;;;8.30;4.70;;;;;;;-145.69;100.00;52394.88;5053379;28;20261;-76
2023/05/07 03:50:23;;;;;;;8.53;5.07;;;;;;;-145.69;100.00;52430.53;5053815;28;20215;-77
2023/05/07 03:52:49;;;;;;;8.93;4.70;;;;;;;-145.69;100.00;52388.94;5060238;28;20199;-76
2023/05/07 03:55:16;;;;;;;9.83;5.17;;;;;;;-145.69;100.00;52383.00;5061548;28;20227;-77
2023/05/07 03:57:42;;;;;;;11.40;4.73;;;;;;;-145.69;100.00;52377.06;5053608;28;20225;-77
2023/05/07 04:00:11;;;;;;;11.07;5.60;;;;;;;-145.69;100.00;52390.91;5054651;28;20884;-77
2023/05/07 04:02:38;;;;;;;8.63;5.80;;;;;;;-145.69;100.00;52392.91;5070151;28;20202;-77
2023/05/07 04:05:05;;;;;;;8.37;4.73;;;;;;;-145.69;100.00;52377.06;5053141;28;20198;-77
2023/05/07 04:07:31;;;;;;;9.87;4.73;;;;;;;-145.69;100.00;52426.56;5053448;28;20207;-77
2023/05/07 04:09:58;;;;;;;9.17;5.07;;;;;;;-145.69;100.00;52408.75;5053286;28;20234;-76
2023/05/07 04:12:24;;;;;;;5.93;4.83;;;;;;;-145.69;100.00;52392.91;5053371;28;20208;-76
2023/05/07 04:14:51;;;;;;;9.70;4.90;;;;;;;-145.69;100.00;52408.75;5053274;28;20261;-77
2023/05/07 04:17:18;;;;;;;19.50;6.10;;;;;;;-145.69;100.00;52388.94;5052716;28;20222;-76
2023/05/07 04:19:45;;;;;;;10.57;5.13;;;;;;;-145.69;100.00;52375.06;5053025;28;20716;-75
2023/05/07 04:22:11;;;;;;;8.80;5.13;;;;;;;-145.69;100.00;52394.88;5067300;28;20202;-76
2023/05/07 04:24:38;;;;;;;10.13;5.03;;;;;;;-145.69;100.00;52396.84;5073167;28;20206;-76
2023/05/07 04:27:04;;;;;;;9.90;5.20;;;;;;;-145.69;100.00;52404.78;5073276;28;20225;-76
2023/05/07 04:29:30;;;;;;;6.87;4.57;;;;;;;-145.69;100.00;52384.97;5057730;28;20199;-76
2023/05/07 04:31:58;;;;;;;7.10;4.70;;;;;;;-145.69;100.00;52396.84;5072442;28;20234;-77
2023/05/07 04:34:26;;;;;;;9.27;4.60;;;;;;;-145.69;100.00;52384.97;5072825;28;20327;-77
2023/05/07 04:36:52;;;;;;;6.53;4.43;;;;;;;-145.69;100.00;52402.78;5033141;28;20203;-76
2023/05/07 04:39:19;;;;;;;8.17;5.13;;;;;;;-145.69;100.00;52416.66;5058142;28;20199;-77
2023/05/07 04:41:45;;;;;;;6.27;4.60;;;;;;;-145.69;100.00;52357.25;5072979;28;20233;-76
2023/05/07 04:44:12;;;;;;;9.67;5.30;;;;;;;-145.69;100.00;52377.06;5072693;28;20653;-77
2023/05/07 04:46:38;;;;;;;8.77;4.80;;;;;;;-145.69;100.00;52420.63;5072728;28;20226;-76
2023/05/07 04:49:05;;;;;;;10.57;5.53;;;;;;;-145.69;100.00;52383.00;5062294;28;20219;-77
2023/05/07 04:51:33;;;;;;;8.13;4.67;;;;;;;-145.69;100.00;52351.31;5052604;28;20249;-77
2023/05/07 04:53:59;;;;;;;6.53;4.20;;;;;;;-145.69;100.00;52394.88;5070480;28;20557;-77
2023/05/07 04:56:28;;;;;;;6.70;4.47;;;;;;;-145.69;100.00;52386.97;5071793;28;20198;-76
2023/05/07 04:58:55;;;;;;;6.87;4.57;;;;;;;-145.69;100.00;52404.78;5072708;28;20210;-77
2023/05/07 05:01:21;;;;;;;8.50;4.50;;;;;;;-145.69;100.00;52353.28;5072195;28;20195;-76
2023/05/07 05:03:48;;;;;;;10.77;5.03;;;;;;;-145.69;100.00;52384.97;5061249;28;20191;-76
2023/05/07 05:06:14;;;;;;;7.60;4.53;;;;;;;-145.69;100.00;52396.84;5046051;28;20260;-76
2023/05/07 05:08:42;;;;;;;7.23;4.20;;;;;;;-145.69;100.00;52377.06;5072749;28;20198;-76
2023/05/07 05:11:08;;;;;;;4.93;3.93;;;;;;;-145.69;100.00;52373.09;5072745;28;20689;-76
2023/05/07 05:13:35;;;;;;;5.43;3.10;;;;;;;-145.69;100.00;52355.28;5072615;28;20202;-76
2023/05/07 05:16:01;;;;;;;5.60;3.97;;;;;;;-145.69;100.00;52402.78;5068504;28;20196;-76
2023/05/07 05:18:28;;;;;;;7.23;3.77;;;;;;;-145.69;100.00;52390.91;5052547;28;20253;-76
2023/05/07 05:20:54;;;;;;;4.03;3.17;;;;;;;-145.69;100.00;52359.22;5052563;28;20203;-76
2023/05/07 05:23:21;;;;;;;4.97;3.50;;;;;;;-145.69;100.00;52373.09;5053519;28;20444;-76
2023/05/07 05:25:48;;;;;;;5.33;3.30;;;;;;;-145.69;100.00;52355.28;5052612;28;20554;-76
2023/05/07 05:28:15;;;;;;;7.23;3.20;;;;;;;-145.69;100.00;52367.16;5073272;28;20202;-76
2023/05/07 05:30:41;;;;;;;4.13;3.35;;;;;;;-145.69;100.00;52394.88;5073457;28;20717;-76
2023/05/07 05:33:08;;;;;;;5.18;3.05;;;;;;;-145.69;100.00;52365.16;5056317;28;20199;-77
2023/05/07 05:35:35;;;;;;;4.53;3.20;;;;;;;-145.69;100.00;52383.00;5056314;28;20210;-76
2023/05/07 05:38:01;;;;;;;4.25;3.00;;;;;;;-145.69;100.00;52353.28;5072583;28;20733;-76
2023/05/07 05:40:28;;;;;;;4.47;2.67;;;;;;;-145.69;100.00;52357.25;5064976;28;20203;-76
2023/05/07 05:42:56;;;;;;;4.18;2.70;;;;;;;-145.69;100.00;52337.44;5076084;28;20225;-76
2023/05/07 05:45:22;;;;;;;6.57;2.90;;;;;;;-145.69;100.00;52379.03;5066581;28;20226;-76
2023/05/07 05:47:49;;;;;;;4.93;2.53;;;;;;;-145.69;100.00;52361.22;5056183;28;20245;-79
2023/05/07 05:50:15;;;;;;;5.25;2.70;;;;;;;-145.69;100.00;52321.59;5056063;28;20188;-77
2023/05/07 05:52:42;;;;;;;4.72;2.63;;;;;;;-145.69;100.00;52347.34;5060110;28;20192;-76
2023/05/07 05:55:09;;;;;;;2.75;1.92;;;;;;;-145.69;100.00;52339.44;5055826;28;20681;-77
2023/05/07 05:57:36;;;;;;;3.47;2.00;;;;;;;-145.69;100.00;52301.81;5055781;28;20203;-76
2023/05/07 06:00:05;;;;;;;4.38;2.00;;;;;;;-145.69;100.00;52291.91;5056337;28;20200;-77
2023/05/07 06:02:31;;;;;;;3.25;1.83;;;;;;;-145.69;100.00;52309.72;5075253;28;20249;-77
2023/05/07 06:04:58;;;;;;;2.25;1.75;;;;;;;-145.69;100.00;52256.25;5075576;28;20653;-76
2023/05/07 06:07:24;;;;;;;5.72;1.83;;;;;;;-145.69;100.00;52270.13;5075640;28;20199;-77
2023/05/07 06:09:51;;;;;;;4.57;1.80;;;;;;;-145.69;100.00;52297.84;5075560;28;20608;-76
2023/05/07 06:12:17;;;;;;;2.97;1.90;;;;;;;-145.69;100.00;52299.81;5073015;28;20272;-77
2023/05/07 06:14:44;;;;;;;2.53;1.67;;;;;;;-145.69;100.00;52278.03;5075771;28;20562;-76
2023/05/07 06:17:11;;;;;;;3.10;1.77;;;;;;;-145.69;100.00;52276.06;5075642;28;20206;-77
2023/05/07 06:19:38;;;;;;;3.63;2.10;;;;;;;-145.69;100.00;52246.34;5065592;28;20195;-77
2023/05/07 06:22:04;;;;;;;1.70;1.45;;;;;;;-145.69;100.00;52297.84;5055196;28;20558;-76
2023/05/07 06:24:31;;;;;;;2.72;1.42;;;;;;;-145.69;100.00;52252.28;5073956;28;20210;-76
2023/05/07 06:26:58;;;;;;;5.95;1.70;;;;;;;-145.69;100.00;52274.06;5055533;28;20650;-77
2023/05/07 06:29:25;;;;;;;2.22;1.38;;;;;;;-145.69;100.00;52210.72;5055596;28;20199;-77
2023/05/07 06:31:52;;;;;;;1.65;1.40;;;;;;;-145.69;100.00;52254.28;5055169;28;20233;-75
2023/05/07 06:34:20;;;;;;;2.70;1.40;;;;;;;-145.69;100.00;52246.34;5055240;28;20207;-77
2023/05/07 06:36:46;;;;;;;3.92;1.58;;;;;;;-145.69;99.24;52234.47;5056202;28;20215;-76
2023/05/07 06:39:12;;;;;;;3.13;1.38;;;;;;;-145.69;98.00;52230.50;5054727;28;20211;-76
2023/05/07 06:41:39;;;;;;;7.53;1.40;;;;;;;-145.69;97.60;52236.44;5054882;28;20629;-76
2023/05/07 06:44:05;;;;;;;1.95;1.27;;;;;;;-145.69;96.74;52218.63;5055047;28;20230;-77
2023/05/07 06:46:32;;;;;;;2.67;1.70;;;;;;;-145.69;96.00;52250.31;5064286;28;20235;-77
2023/05/07 06:48:58;;;;;;;2.47;1.65;;;;;;;-145.69;95.27;52240.41;5074738;28;20554;-77
2023/05/07 06:51:26;;;;;;;2.47;1.58;;;;;;;-145.69;92.97;52254.28;5074691;28;20279;-76
2023/05/07 06:53:53;;;;;;;2.72;1.85;;;;;;;-145.69;94.35;52252.28;5065693;28;20191;-76
2023/05/07 06:56:19;;;;;;;3.60;1.52;;;;;;;-145.69;94.50;52234.47;5066964;28;20253;-76
2023/05/07 06:58:46;;;;;;;3.33;1.63;;;;;;;-145.69;93.73;52246.34;5054108;28;20211;-76
2023/05/07 07:01:12;;;;;;;2.53;1.50;;;;;;;-145.69;99.18;52252.28;5070145;28;20199;-77
2023/05/07 07:03:39;;;;;;;2.97;1.70;;;;;;;-145.69;100.00;52238.44;5074590;28;20199;-76
2023/05/07 07:06:06;;;;;;;3.15;1.60;;;;;;;-145.69;100.00;52262.19;5069172;28;20282;-76
2023/05/07 07:08:34;;;;;;;3.80;1.90;;;;;;;-145.69;100.00;52256.25;5054414;28;20199;-76
2023/05/07 07:11:00;;;;;;;3.28;1.90;;;;;;;-145.69;100.00;52264.16;5054532;28;20223;-76
2023/05/07 07:13:27;;;;;;;4.25;1.80;;;;;;;-145.69;100.00;52246.34;5054554;28;20199;-76
2023/05/07 07:15:53;;;;;;;3.45;1.70;;;;;;;-145.69;100.00;52276.06;5056817;28;20256;-76
2023/05/07 07:18:20;;;;;;;4.40;2.03;;;;;;;-145.69;100.00;52236.44;5074402;28;20237;-76
2023/05/07 07:20:46;;;;;;;3.03;1.90;;;;;;;-145.69;100.00;52270.13;5074185;28;20319;-76
2023/05/07 07:23:12;;;;;;;5.60;2.10;;;;;;;-145.69;100.00;52266.16;5062190;28;20191;-76
2023/05/07 07:25:40;;;;;;;5.03;2.30;;;;;;;-145.69;100.00;52291.91;5054539;28;20195;-76
2023/05/07 07:28:07;;;;;;;3.45;2.25;;;;;;;-145.69;100.00;52258.22;5074002;28;20614;-77
2023/05/07 07:30:33;;;;;;;3.38;2.25;;;;;;;-145.69;100.00;52278.03;5071160;28;20195;-76
2023/05/07 07:33:02;;;;;;;5.32;2.10;;;;;;;-145.69;100.00;52270.13;5054172;28;20230;-76
2023/05/07 07:35:28;;;;;;;5.80;2.33;;;;;;;-145.69;100.00;52262.19;5053558;28;20211;-77
2023/05/07 07:37:55;;;;;;;4.63;2.20;;;;;;;-145.69;100.00;52234.47;5069012;28;20260;-76
2023/05/07 07:40:21;;;;;;;4.97;2.22;;;;;;;-145.69;100.00;52256.25;5053945;28;20192;-76
2023/05/07 07:42:49;;;;;;;5.03;2.03;;;;;;;-145.69;100.00;52230.50;5053684;28;20567;-75
2023/05/07 07:45:15;;;;;;;4.32;2.10;;;;;;;-145.69;100.00;52244.38;5053586;28;20200;-76
2023/05/07 07:47:42;;;;;;;3.83;2.30;;;;;;;-145.69;100.00;52208.72;5054036;28;20203;-76
2023/05/07 07:50:09;;;;;;;3.40;1.92;;;;;;;-145.69;100.00;52238.44;5053286;28;20207;-76
2023/05/07 07:52:36;;;;;;;4.45;1.98;;;;;;;-145.69;100.00;52244.38;5059451;28;20214;-75
2023/05/07 07:55:03;;;;;;;3.45;2.15;;;;;;;-145.69;100.00;52222.59;5073684;28;20202;-75
2023/05/07 07:57:29;;;;;;;2.72;1.95;;;;;;;-145.69;100.00;52234.47;5058298;28;20206;-75
2023/05/07 07:59:57;;;;;;;4.03;2.00;;;;;;;-145.69;100.00;52244.38;5053575;28;20207;-76
2023/05/07 08:02:24;;;;;;;5.47;1.90;;;;;;;-145.69;100.00;52246.34;5053089;28;20685;-76
2023/05/07 08:04:50;;;;;;;3.83;1.80;;;;;;;-145.69;100.00;52242.38;5053140;28;20203;-76
2023/05/07 08:07:20;;;;;;;4.68;1.92;;;;;;;-145.69;100.00;52256.25;5065598;28;20600;-75
2023/05/07 08:09:49;;;;;;;4.57;2.20;;;;;;;-145.69;100.00;52250.31;5073405;28;20286;-76
2023/05/07 08:12:17;;;;;;;3.55;2.20;;;;;;;-145.69;100.00;52218.63;5073076;28;20226;-76
2023/05/07 08:14:43;;;;;;;5.75;2.38;;;;;;;-145.69;100.00;52236.44;5073173;28;20234;-76
2023/05/07 08:17:16;;;;;;;5.43;1.80;;;;;;;-145.69;100.00;52218.63;5062122;28;20531;-76
2023/05/07 08:19:45;;;;;;;4.20;1.98;;;;;;;-145.69;100.00;52216.66;5053340;28;20227;-75
2023/05/07 08:22:18;;;;;;;5.28;2.03;;;;;;;-145.69;100.00;52260.22;5057957;28;20202;-76
2023/05/07 08:24:44;;;;;;;5.07;2.47;;;;;;;-145.69;100.00;52234.47;5073177;28;20234;-77
2023/05/07 08:27:11;;;;;;;3.78;2.30;;;;;;;-145.69;100.00;52218.63;5062790;28;20199;-76
2023/05/07 08:29:38;;;;;;;3.95;1.95;;;;;;;-145.69;100.00;52224.56;5052887;28;20290;-76
2023/05/07 08:32:06;;;;;;;6.88;1.90;;;;;;;-145.69;100.00;52232.50;5053546;28;20277;-76
2023/05/07 08:34:38;;;;;;;3.47;2.20;;;;;;;-145.69;100.00;52226.53;5053054;28;20203;-76
2023/05/07 08:37:07;;;;;;;4.25;2.17;;;;;;;-145.69;100.00;52210.72;5060428;28;20198;-76
2023/05/07 08:39:36;;;;;;;4.15;2.15;;;;;;;-145.69;100.00;52226.53;5073033;28;20235;-76
2023/05/07 08:42:06;;;;;;;3.15;2.00;;;;;;;-145.69;100.00;52230.50;5072567;28;20203;-76
2023/05/07 08:44:35;;;;;;;5.93;2.10;;;;;;;-145.69;100.00;52242.38;5073083;28;20524;-76
2023/05/07 08:47:07;;;;;;;5.28;2.10;;;;;;;-145.69;100.00;52238.44;5064703;28;20265;-76
2023/05/07 08:49:36;;;;;;;3.10;2.05;;;;;;;-145.69;96.37;52218.63;5052983;28;20621;-76
2023/05/07 08:52:02;;;;;;;2.38;1.70;;;;;;;-145.69;97.22;52232.50;5055714;28;20222;-76
2023/05/07 08:54:33;;;;;;;4.22;1.98;;;;;;;-145.69;100.00;52234.47;5072879;28;20672;-76
2023/05/07 08:57:01;;;;;;;4.18;1.90;;;;;;;-145.69;95.84;52254.28;5062578;28;20199;-76
2023/05/07 08:59:29;;;;;;;4.28;1.67;;;;;;;-145.69;94.60;52218.63;5032969;28;20231;-81
2023/05/07 09:01:56;;;;;;;2.42;1.60;;;;;;;-145.69;100.00;52198.81;5051974;28;20207;-79
2023/05/07 09:04:25;;;;;;;3.20;1.67;;;;;;;-145.69;100.00;52188.91;5056934;28;20203;-79
2023/05/07 09:06:55;;;;;;;4.18;1.67;;;;;;;-145.69;98.28;52198.81;5062001;28;20214;-79
2023/05/07 09:09:25;;;;;;;2.70;1.60;;;;;;;-145.69;91.35;52210.72;5076535;28;20285;-79
2023/05/07 09:11:58;;;;;;;3.50;1.58;;;;;;;-145.69;85.33;52186.94;5076491;28;20313;-77
2023/05/07 09:14:25;;;;;;;3.75;2.15;;;;;;;-145.69;84.33;52206.75;5076685;28;20195;-79
2023/05/07 09:16:53;;;;;;;3.17;2.03;;;;;;;-145.69;87.74;52198.81;5071056;28;20196;-75
2023/05/07 09:19:24;;;;;;;3.58;1.98;;;;;;;-145.69;90.52;52218.63;5056741;28;20222;-75
2023/05/07 09:21:50;;;;;;;4.35;2.20;;;;;;;-145.69;92.78;52202.78;5057521;28;20268;-75
2023/05/07 09:24:18;;;;;;;2.70;1.98;;;;;;;-145.69;92.86;52210.72;5056574;28;20202;-75
2023/05/07 09:26:47;;;;;;;3.72;2.15;;;;;;;-145.69;93.30;52194.88;5059145;28;20190;-75
2023/05/07 09:29:16;;;;;;;5.88;1.98;;;;;;;-145.69;95.22;52210.72;5076484;28;20195;-75
2023/05/07 09:31:46;;;;;;;3.50;1.80;;;;;;;-145.69;98.43;52196.84;5076345;28;20226;-76
2023/05/07 09:34:15;;;;;;;6.72;2.15;;;;;;;-145.69;96.35;52210.72;5075892;28;20680;-75
2023/05/07 09:36:45;;;;;;;3.28;1.60;;;;;;;-145.69;93.08;52204.75;5072958;28;20196;-75
2023/05/07 09:39:12;;;;;;;2.25;1.70;;;;;;;-145.69;96.48;52175.06;5055932;28;20214;-76
2023/05/07 09:41:46;;;;;;;3.13;1.73;;;;;;;-145.69;92.47;52177.03;5055682;28;20658;-76
2023/05/07 09:44:13;;;;;;;3.80;2.00;;;;;;;-145.69;88.18;52151.28;5056199;28;20215;-76
2023/05/07 09:46:42;;;;;;;4.47;1.40;;;;;;;-145.69;80.70;52137.44;5055589;28;20231;-76
2023/05/07 09:49:16;;;;;;;2.47;1.70;;;;;;;-145.69;75.20;52143.38;5055893;28;20729;-76
2023/05/07 09:51:50;;;;;;;2.45;1.90;;;;;;;-145.69;72.90;52167.13;5056245;28;20230;-75
2023/05/07 09:54:17;;;;;;;4.65;2.30;;;;;;;-145.69;75.04;52155.25;5076049;28;20222;-76
2023/05/07 09:56:48;;;;;;;3.05;1.80;;;;;;;-145.69;75.01;52169.13;5075673;28;20203;-77
2023/05/07 09:59:17;;;;;;;3.22;1.70;;;;;;;-145.69;78.53;52147.34;5075187;28;20195;-74
2023/05/07 10:01:46;;;;;;;3.22;1.88;;;;;;;-145.69;70.33;52171.09;5060859;28;20203;-75
2023/05/07 10:04:13;;;;;;;6.40;1.92;;;;;;;-145.69;69.23;52155.25;5055639;28;20236;-76
2023/05/07 10:06:41;;;;;;;3.00;2.17;;;;;;;-145.69;68.64;52155.25;5055598;28;20235;-76
2023/05/07 10:09:12;;;;;;;2.72;1.52;;;;;;;-145.69;67.92;52127.53;5075163;28;20195;-77
2023/05/07 10:11:38;;;;;;;4.55;1.77;;;;;;;-145.69;72.75;52141.41;5075497;28;20201;-76
2023/05/07 10:14:06;;;;;;;6.20;1.88;;;;;;;-145.69;83.54;52208.72;5055925;28;20199;-77
2023/05/07 10:16:36;;;;;;;4.97;1.98;;;;;;;-145.69;90.36;52163.19;5055436;28;20199;-75
2023/05/07 10:19:03;;;;;;;6.57;2.65;;;;;;;-145.69;100.00;52200.81;5074446;28;20206;-75
2023/05/07 10:21:31;;;;;;;9.25;3.00;;;;;;;-145.69;100.00;52206.75;5075435;28;20198;-75
2023/05/07 10:24:00;;;;;;;11.32;2.80;;;;;;;-145.69;100.00;52232.50;5055791;28;20195;-75
2023/05/07 10:26:29;;;;;;;24.02;5.35;;;;;;;-145.69;100.00;52234.47;5055230;28;20203;-77
2023/05/07 10:29:00;;;;;;;9.38;3.85;;;;;;;-145.69;100.00;52230.50;5056320;28;20206;-77
2023/05/07 10:31:50;;;;;;;9.88;3.58;;;;;;;-145.69;100.00;52274.06;5056368;28;20201;-76
2023/05/07 10:34:22;;;;;;;10.75;4.28;;;;;;;-145.69;100.00;52282.00;5054706;28;20298;-76
2023/05/07 10:36:50;;;;;;;10.23;3.72;;;;;;;-145.69;100.00;52317.66;5054989;28;20202;-75
2023/05/07 10:39:16;;;;;;;13.38;4.25;;;;;;;-145.69;100.00;52297.84;5071062;28;20244;-76
2023/05/07 10:41:43;;;;;;;8.75;3.50;;;;;;;-145.69;100.00;52325.56;5074567;28;20209;-76
2023/05/07 10:44:09;;;;;;;10.73;3.25;;;;;;;-145.69;100.00;52327.53;5074924;28;20198;-75
2023/05/07 10:46:37;;;;;;;5.97;2.30;;;;;;;-145.69;100.00;52282.00;5074596;28;20635;-75
2023/05/07 10:49:12;;;;;;;9.80;2.88;;;;;;;-145.69;100.00;52293.88;5061054;28;20583;-74
2023/05/07 10:51:41;;;;;;;8.25;2.85;;;;;;;-145.69;100.00;52282.00;5054853;28;20202;-75
2023/05/07 10:54:24;;;;;;;11.55;2.70;;;;;;;-145.69;100.00;52280.00;5055838;28;20191;-75
2023/05/07 10:56:54;;;;;;;8.73;3.20;;;;;;;-145.69;100.00;52285.97;5054401;28;20674;-75
2023/05/07 10:59:43;;;;;;;11.15;4.05;;;;;;;-145.69;100.00;52299.81;5065422;28;20191;-77
2023/05/07 11:02:13;;;;;;;10.48;3.65;;;;;;;-145.69;100.00;52311.69;5030491;28;20242;-76
2023/05/07 11:04:41;;;;;;;8.13;3.10;;;;;;;-145.69;100.00;52291.91;5036131;28;20683;-78
2023/05/07 11:07:31;;;;;;;6.68;3.33;;;;;;;-145.69;100.00;52321.59;5045047;28;20206;-77
2023/05/07 11:10:01;;;;;;;11.05;3.38;;;;;;;-145.69;100.00;52293.88;5051443;28;20601;-78
2023/05/07 11:12:55;;;;;;;10.57;3.20;;;;;;;-145.69;100.00;52325.56;5043262;28;20231;-78